Time;durP1;ratioP1;P1;durP2;ratioP2;P2;SDS_P1;SDS_P2;PMS_P1;PMS_P2;Temp;Humidity;BMP_temperature;BMP_pressure;BME280_temperature;BME280_humidity;BME280_pressure;Samples;Min_cycle;Max_cycle;Signal;HPM_P1;HPM_P2
2023/05/10 00:02:00;;;;;;;15.80;10.73;;;13.40;99.90;;;;;;5112627;28;20101;-61
2023/05/10 00:04:27;;;;;;;16.67;10.50;;;13.40;99.90;;;;;;5113179;28;20039;-60
2023/05/10 00:06:54;;;;;;;14.63;9.50;;;13.50;99.90;;;;;;5115378;28;20051;-62
2023/05/10 00:09:20;;;;;;;13.70;8.88;;;13.50;99.90;;;;;;5116792;28;20052;-61
2023/05/10 00:11:46;;;;;;;12.20;8.43;;;13.30;99.90;;;;;;5116011;28;20051;-61
2023/05/10 00:14:12;;;;;;;9.80;7.57;;;13.50;99.90;;;;;;5098614;28;20051;-63
2023/05/10 00:16:38;;;;;;;8.18;6.70;;;13.50;99.90;;;;;;5116654;28;20043;-61
2023/05/10 00:19:05;;;;;;;12.52;7.38;;;13.40;99.90;;;;;;5116585;28;20146;-62
2023/05/10 00:21:32;;;;;;;7.70;6.15;;;13.40;99.90;;;;;;5115902;28;20101;-62
2023/05/10 00:23:58;;;;;;;9.10;6.13;;;13.50;99.90;;;;;;5116425;28;20051;-62
2023/05/10 00:26:24;;;;;;;10.52;7.13;;;13.50;99.90;;;;;;5116822;28;20063;-62
2023/05/10 00:28:50;;;;;;;8.90;6.78;;;13.40;99.90;;;;;;5115926;28;20051;-61
2023/05/10 00:31:17;;;;;;;9.95;6.20;;;13.30;99.90;;;;;;5097881;28;20515;-62
2023/05/10 00:33:43;;;;;;;8.15;6.35;;;13.30;99.90;;;;;;5116134;28;20047;-62
2023/05/10 00:36:09;;;;;;;7.65;6.00;;;13.50;99.90;;;;;;5116083;28;20104;-61
2023/05/10 00:38:35;;;;;;;8.23;6.22;;;13.40;99.90;;;;;;5116290;28;20050;-63
2023/05/10 00:41:02;;;;;;;10.98;6.47;;;13.50;99.90;;;;;;5115708;28;20383;-61
2023/05/10 00:43:28;;;;;;;9.70;6.00;;;13.40;99.90;;;;;;5115847;28;20043;-62
2023/05/10 00:45:55;;;;;;;6.10;5.28;;;13.30;99.90;;;;;;5116505;28;20063;-61
2023/05/10 00:48:21;;;;;;;7.60;5.00;;;13.30;99.90;;;;;;5116073;28;20055;-61
2023/05/10 00:50:48;;;;;;;6.55;4.78;;;13.30;99.90;;;;;;5115753;28;20113;-62
2023/05/10 00:53:14;;;;;;;6.45;4.85;;;13.40;99.90;;;;;;5115471;28;20047;-61
2023/05/10 00:55:41;;;;;;;5.20;4.40;;;13.30;99.90;;;;;;5115895;28;20054;-61
2023/05/10 00:58:07;;;;;;;6.40;4.82;;;13.30;99.90;;;;;;5115959;28;20055;-61
2023/05/10 01:00:35;;;;;;;6.13;4.50;;;13.30;99.90;;;;;;5115881;28;20058;-61
2023/05/10 01:03:02;;;;;;;5.20;4.38;;;13.20;99.90;;;;;;5115087;28;20048;-62
2023/05/10 01:05:28;;;;;;;6.43;4.80;;;13.20;99.90;;;;;;5115658;28;20043;-62
2023/05/10 01:07:55;;;;;;;5.38;4.50;;;13.20;99.90;;;;;;5115982;28;20055;-61
2023/05/10 01:10:22;;;;;;;6.40;5.13;;;13.20;99.90;;;;;;5115970;28;20116;-60
2023/05/10 01:12:48;;;;;;;6.63;4.80;;;13.30;99.90;;;;;;5114814;28;20055;-61
2023/05/10 01:15:16;;;;;;;5.25;3.92;;;13.30;99.90;;;;;;5115553;28;20044;-60
2023/05/10 01:17:45;;;;;;;4.82;4.18;;;13.10;99.90;;;;;;5115231;28;20478;-61
2023/05/10 01:20:12;;;;;;;4.93;4.07;;;13.20;99.90;;;;;;5115100;28;20040;-63
2023/05/10 01:23:05;;;;;;;5.32;4.18;;;13.20;99.90;;;;;;5114661;28;20044;-62
2023/05/10 01:25:55;;;;;;;7.43;4.55;;;13.10;99.90;;;;;;5115465;28;20398;-61
2023/05/10 01:28:34;;;;;;;5.22;4.05;;;13.20;99.90;;;;;;5115064;28;20066;-63
2023/05/10 01:31:09;;;;;;;5.60;4.93;;;13.10;99.90;;;;;;5114776;28;20406;-61
2023/05/10 01:33:41;;;;;;;5.03;4.13;;;13.30;99.90;;;;;;5114613;28;20471;-60
2023/05/10 01:36:25;;;;;;;4.75;3.90;;;13.10;99.90;;;;;;5114990;28;20077;-61
2023/05/10 01:38:56;;;;;;;5.07;4.10;;;13.20;99.90;;;;;;5115300;28;20448;-60
2023/05/10 01:41:31;;;;;;;4.50;3.78;;;13.10;99.90;;;;;;5114957;28;20043;-61
2023/05/10 01:44:24;;;;;;;5.88;4.50;;;13.10;99.90;;;;;;5094635;28;20040;-62
2023/05/10 01:47:04;;;;;;;5.78;3.83;;;13.00;99.90;;;;;;5094667;28;20048;-62
2023/05/10 01:49:36;;;;;;;5.45;3.88;;;13.00;99.90;;;;;;5094514;28;20117;-61
2023/05/10 01:52:12;;;;;;;5.80;4.10;;;13.10;99.90;;;;;;5099148;28;20052;-60
2023/05/10 01:54:53;;;;;;;5.45;3.85;;;13.10;99.90;;;;;;5114737;28;20081;-60
2023/05/10 01:57:21;;;;;;;6.38;4.45;;;13.10;99.90;;;;;;5114842;28;20043;-60
2023/05/10 01:59:51;;;;;;;5.78;4.43;;;13.10;99.90;;;;;;5114643;28;20077;-62
2023/05/10 02:02:20;;;;;;;5.13;3.80;;;13.10;99.90;;;;;;5113870;28;20443;-62
2023/05/10 02:04:49;;;;;;;5.45;4.38;;;13.00;99.90;;;;;;5114983;28;20047;-61
2023/05/10 02:07:16;;;;;;;6.15;4.22;;;13.00;99.90;;;;;;5114263;28;20077;-61
2023/05/10 02:09:48;;;;;;;4.75;3.80;;;13.00;99.90;;;;;;5114431;28;20051;-63
2023/05/10 02:12:16;;;;;;;6.75;4.90;;;13.00;99.90;;;;;;5113966;28;20378;-61
2023/05/10 02:14:44;;;;;;;5.60;4.15;;;12.90;99.90;;;;;;5114405;28;20116;-61
2023/05/10 02:17:11;;;;;;;5.47;4.63;;;13.00;99.90;;;;;;5114322;28;20048;-62
2023/05/10 02:19:41;;;;;;;5.75;4.43;;;13.00;99.90;;;;;;5114118;28;20040;-61
2023/05/10 02:22:09;;;;;;;6.18;4.63;;;13.00;99.90;;;;;;5114092;28;20054;-61
2023/05/10 02:24:37;;;;;;;7.25;4.72;;;12.90;99.90;;;;;;5114537;28;20047;-63
2023/05/10 02:27:04;;;;;;;6.55;4.90;;;12.90;99.90;;;;;;5114038;28;20059;-62
2023/05/10 02:29:32;;;;;;;7.07;4.80;;;13.00;99.90;;;;;;5113380;28;20058;-63
2023/05/10 02:31:59;;;;;;;7.68;4.93;;;12.80;99.90;;;;;;5113468;28;20111;-62
2023/05/10 02:34:27;;;;;;;11.63;6.40;;;12.90;99.90;;;;;;5114035;28;20113;-62
2023/05/10 02:36:55;;;;;;;10.48;5.13;;;12.90;99.90;;;;;;5114329;28;20055;-61
2023/05/10 02:39:23;;;;;;;10.38;5.45;;;13.00;99.90;;;;;;5114359;28;20047;-61
2023/05/10 02:41:52;;;;;;;11.07;5.97;;;12.90;99.90;;;;;;5113322;28;20055;-62
2023/05/10 02:44:20;;;;;;;8.68;5.38;;;13.00;99.90;;;;;;5114122;28;20490;-62
2023/05/10 02:46:46;;;;;;;13.65;6.10;;;12.90;99.90;;;;;;5114115;28;20047;-63
2023/05/10 02:49:13;;;;;;;10.48;5.43;;;12.90;99.90;;;;;;5113497;28;20059;-62
2023/05/10 02:51:45;;;;;;;10.25;6.78;;;13.00;99.90;;;;;;5113349;28;20425;-62
2023/05/10 02:54:15;;;;;;;9.93;5.40;;;13.00;99.90;;;;;;5113921;28;20105;-62
2023/05/10 02:56:48;;;;;;;8.93;5.25;;;13.00;99.90;;;;;;5113901;28;20052;-63
2023/05/10 02:59:15;;;;;;;12.48;5.40;;;12.90;99.90;;;;;;5114017;28;20104;-61
2023/05/10 03:01:41;;;;;;;10.55;5.78;;;13.00;99.90;;;;;;5113058;28;20040;-62
2023/05/10 03:04:08;;;;;;;11.13;6.05;;;13.00;99.90;;;;;;5095654;28;20429;-61
2023/05/10 03:06:34;;;;;;;10.00;5.60;;;13.00;99.90;;;;;;5113845;28;20056;-61
2023/05/10 03:09:02;;;;;;;9.27;5.55;;;13.00;99.90;;;;;;5113934;28;20196;-63
2023/05/10 03:11:34;;;;;;;8.13;5.90;;;13.10;99.90;;;;;;5113459;28;20047;-62
2023/05/10 03:14:13;;;;;;;9.18;5.90;;;13.00;99.90;;;;;;5113664;28;20059;-62
2023/05/10 03:16:49;;;;;;;9.25;6.20;;;12.90;99.90;;;;;;5113736;28;20459;-60
2023/05/10 03:19:32;;;;;;;15.27;7.78;;;12.80;99.90;;;;;;5113741;28;20051;-63
2023/05/10 03:22:03;;;;;;;11.98;7.57;;;13.00;99.90;;;;;;5112820;28;20364;-60
2023/05/10 03:24:30;;;;;;;9.65;6.10;;;12.90;99.90;;;;;;5113586;28;20052;-61
2023/05/10 03:27:02;;;;;;;6.78;5.30;;;13.00;99.90;;;;;;5113337;28;20440;-62
2023/05/10 03:29:30;;;;;;;6.32;4.53;;;12.80;99.90;;;;;;5113908;28;20055;-61
2023/05/10 03:32:00;;;;;;;8.15;5.20;;;12.90;99.90;;;;;;5112874;28;20055;-62
2023/05/10 03:34:26;;;;;;;6.13;4.72;;;12.90;99.90;;;;;;5113249;28;20410;-61
2023/05/10 03:36:52;;;;;;;8.32;4.43;;;13.00;99.90;;;;;;5113545;28;20039;-61
2023/05/10 03:39:19;;;;;;;8.18;5.53;;;12.90;99.90;;;;;;5112988;28;20414;-61
2023/05/10 03:41:45;;;;;;;9.43;5.30;;;13.00;99.90;;;;;;5116270;28;20093;-61
2023/05/10 03:44:11;;;;;;;7.35;4.78;;;13.00;99.90;;;;;;5117276;28;20051;-60
2023/05/10 03:46:37;;;;;;;8.65;4.70;;;12.90;99.90;;;;;;5117223;28;20047;-63
2023/05/10 03:49:04;;;;;;;7.85;4.03;;;12.90;99.90;;;;;;5117198;28;20047;-61
2023/05/10 03:51:31;;;;;;;5.60;3.90;;;12.90;99.90;;;;;;5116530;28;20060;-61
2023/05/10 03:53:57;;;;;;;5.25;3.58;;;12.80;99.90;;;;;;5116955;28;20055;-62
2023/05/10 03:56:23;;;;;;;7.63;5.80;;;12.70;99.90;;;;;;5117107;28;20101;-61
2023/05/10 03:58:49;;;;;;;6.43;3.80;;;12.80;99.90;;;;;;5117070;28;20058;-62
2023/05/10 04:01:15;;;;;;;7.93;5.82;;;12.80;99.90;;;;;;5116754;28;20407;-61
2023/05/10 04:03:42;;;;;;;8.50;5.50;;;12.90;99.90;;;;;;5116325;28;20356;-62
2023/05/10 04:06:11;;;;;;;10.65;6.68;;;12.80;99.90;;;;;;5116999;28;20371;-60
2023/05/10 04:08:37;;;;;;;10.27;5.90;;;12.80;99.90;;;;;;5116845;28;20052;-61
2023/05/10 04:11:08;;;;;;;13.20;6.18;;;12.90;99.90;;;;;;5116425;28;20116;-61
2023/05/10 04:13:35;;;;;;;11.73;6.60;;;12.80;99.90;;;;;;5116640;28;20100;-61
2023/05/10 04:16:01;;;;;;;10.20;5.35;;;12.90;99.90;;;;;;5116870;28;20047;-62
2023/05/10 04:18:28;;;;;;;10.43;5.10;;;12.90;99.90;;;;;;5099429;28;20078;-62
2023/05/10 04:20:54;;;;;;;10.52;6.53;;;12.80;99.90;;;;;;5116050;28;20055;-61
2023/05/10 04:23:20;;;;;;;12.07;5.55;;;12.80;99.90;;;;;;5116241;28;20043;-61
2023/05/10 04:25:47;;;;;;;9.68;5.72;;;12.80;99.90;;;;;;5098684;28;20457;-61
2023/05/10 04:28:13;;;;;;;9.38;5.38;;;13.00;99.90;;;;;;5116061;28;20085;-63
2023/05/10 04:30:40;;;;;;;9.70;6.03;;;12.90;99.90;;;;;;5115629;28;20489;-63
2023/05/10 04:33:06;;;;;;;13.63;5.78;;;12.90;99.90;;;;;;5115911;28;20425;-61
2023/05/10 04:35:33;;;;;;;9.18;6.47;;;13.00;99.90;;;;;;5116044;28;20064;-61
2023/05/10 04:38:00;;;;;;;10.35;6.78;;;12.90;99.90;;;;;;5116392;28;20085;-62
2023/05/10 04:40:26;;;;;;;10.88;7.03;;;13.00;99.90;;;;;;5115952;28;20051;-61
2023/05/10 04:42:52;;;;;;;13.23;6.93;;;12.90;99.90;;;;;;5124677;27;20460;-62
2023/05/10 04:45:19;;;;;;;9.73;6.40;;;12.90;99.90;;;;;;5124022;27;20467;-61
2023/05/10 04:47:45;;;;;;;12.52;7.10;;;13.00;99.90;;;;;;5125937;27;20046;-61
2023/05/10 04:50:11;;;;;;;11.25;6.50;;;12.90;99.90;;;;;;5125667;27;20371;-62
2023/05/10 04:52:37;;;;;;;11.70;6.32;;;12.90;99.90;;;;;;5122592;27;20051;-61
2023/05/10 04:55:04;;;;;;;11.07;6.43;;;13.00;99.90;;;;;;5126105;27;20047;-61
2023/05/10 04:57:30;;;;;;;10.73;6.25;;;12.80;99.90;;;;;;5115499;27;20043;-61
2023/05/10 04:59:56;;;;;;;12.00;6.57;;;12.90;99.90;;;;;;5115847;28;20040;-62
2023/05/10 05:02:24;;;;;;;11.52;6.50;;;12.80;99.90;;;;;;5114638;28;20051;-61
2023/05/10 05:04:50;;;;;;;11.65;7.18;;;13.00;99.90;;;;;;5114702;27;20035;-60
2023/05/10 05:07:17;;;;;;;13.32;7.00;;;12.90;99.90;;;;;;5115147;28;20059;-60
2023/05/10 05:09:43;;;;;;;8.50;5.90;;;13.00;99.90;;;;;;5115756;28;20056;-61
2023/05/10 05:12:13;;;;;;;11.20;6.32;;;13.00;99.90;;;;;;5114175;28;20670;-61
2023/05/10 05:14:41;;;;;;;10.75;6.90;;;12.80;99.90;;;;;;5110593;28;20101;-62
2023/05/10 05:17:07;;;;;;;16.92;8.43;;;13.00;99.90;;;;;;5112385;28;20108;-61
2023/05/10 05:19:34;;;;;;;15.23;7.38;;;13.00;99.90;;;;;;5112956;28;20048;-61
2023/05/10 05:22:00;;;;;;;15.57;7.50;;;12.90;99.90;;;;;;5118439;27;20100;-61
2023/05/10 05:24:26;;;;;;;12.90;8.38;;;12.90;99.90;;;;;;5122250;27;20100;-61
2023/05/10 05:26:52;;;;;;;12.82;7.35;;;12.90;99.90;;;;;;5135204;27;20466;-62
2023/05/10 05:29:19;;;;;;;13.77;7.15;;;12.90;99.90;;;;;;5135574;27;20058;-61
2023/05/10 05:31:45;;;;;;;11.23;6.90;;;13.00;99.90;;;;;;5132456;27;20051;-64
2023/05/10 05:34:11;;;;;;;11.35;7.63;;;12.90;99.90;;;;;;5113720;28;20062;-63
2023/05/10 05:36:40;;;;;;;13.43;7.72;;;13.00;99.90;;;;;;5113892;28;20059;-62
2023/05/10 05:39:07;;;;;;;12.52;7.00;;;12.90;99.90;;;;;;5114958;28;20047;-63
2023/05/10 05:41:33;;;;;;;12.35;7.07;;;12.90;99.90;;;;;;5114712;28;20074;-63
2023/05/10 05:43:59;;;;;;;14.35;7.47;;;12.90;99.90;;;;;;5114676;28;20047;-61
2023/05/10 05:46:26;;;;;;;12.73;7.03;;;13.00;99.90;;;;;;5115030;28;20085;-62
2023/05/10 05:48:52;;;;;;;13.88;8.50;;;12.90;99.90;;;;;;5114854;28;20043;-61
2023/05/10 05:51:18;;;;;;;11.98;7.47;;;13.00;99.90;;;;;;5114128;28;20070;-63
2023/05/10 05:53:45;;;;;;;15.77;7.60;;;12.90;99.90;;;;;;5114659;28;20066;-62
2023/05/10 05:56:11;;;;;;;12.27;7.70;;;13.00;99.90;;;;;;5114213;28;20471;-61
2023/05/10 05:58:37;;;;;;;12.88;7.30;;;13.00;99.90;;;;;;5114875;28;20043;-63
2023/05/10 06:01:03;;;;;;;14.40;7.35;;;13.10;99.90;;;;;;5114249;28;20047;-61
2023/05/10 06:03:30;;;;;;;14.45;7.93;;;13.10;99.90;;;;;;5114243;28;20059;-63
2023/05/10 06:05:56;;;;;;;14.90;7.25;;;13.00;99.90;;;;;;5114612;28;20043;-61
2023/05/10 06:08:22;;;;;;;13.82;7.80;;;13.20;99.90;;;;;;5114606;28;20448;-61
2023/05/10 06:10:48;;;;;;;13.57;6.80;;;13.00;99.90;;;;;;5096062;28;20051;-62
2023/05/10 06:13:15;;;;;;;12.93;7.70;;;13.20;99.90;;;;;;5114412;28;20144;-62
2023/05/10 06:15:41;;;;;;;13.50;6.60;;;13.10;99.90;;;;;;5114247;28;20048;-62
2023/05/10 06:18:07;;;;;;;12.63;7.60;;;13.10;99.90;;;;;;5114353;28;20101;-61
2023/05/10 06:20:34;;;;;;;14.65;7.47;;;13.10;99.90;;;;;;5113666;28;20039;-61
2023/05/10 06:23:00;;;;;;;13.93;8.20;;;13.30;99.90;;;;;;5114027;28;20101;-62
2023/05/10 06:25:26;;;;;;;13.18;6.82;;;13.10;99.90;;;;;;5114310;28;20043;-62
2023/05/10 06:27:56;;;;;;;14.52;7.00;;;13.40;99.90;;;;;;5113897;28;20083;-63
2023/05/10 06:30:27;;;;;;;12.60;7.28;;;13.40;99.90;;;;;;5114229;28;20052;-63
2023/05/10 06:32:54;;;;;;;12.27;7.50;;;13.40;99.90;;;;;;5113986;28;20044;-61
2023/05/10 06:35:20;;;;;;;14.48;7.55;;;13.40;99.90;;;;;;5113825;28;20047;-61
2023/05/10 06:37:46;;;;;;;11.32;6.15;;;13.30;99.90;;;;;;5114219;28;20051;-62
2023/05/10 06:40:13;;;;;;;14.75;7.53;;;13.40;99.90;;;;;;5114203;28;20063;-63
2023/05/10 06:42:39;;;;;;;15.65;7.22;;;13.50;99.90;;;;;;5113671;28;20047;-62
2023/05/10 06:45:06;;;;;;;13.32;7.65;;;13.50;99.90;;;;;;5113744;28;20370;-63
2023/05/10 06:47:32;;;;;;;13.40;7.82;;;13.50;99.90;;;;;;5113962;28;20047;-62
2023/05/10 06:49:58;;;;;;;12.88;7.55;;;13.60;99.90;;;;;;5114097;28;20051;-62
2023/05/10 06:52:25;;;;;;;12.05;7.57;;;13.60;99.90;;;;;;5113181;28;20436;-63
2023/05/10 06:54:51;;;;;;;16.00;7.63;;;13.50;99.90;;;;;;5114069;28;20071;-63
2023/05/10 06:57:17;;;;;;;14.23;7.70;;;13.50;99.90;;;;;;5113755;28;20100;-61
2023/05/10 06:59:44;;;;;;;13.15;6.78;;;13.50;99.90;;;;;;5113772;28;20051;-62
2023/05/10 07:02:10;;;;;;;12.88;7.75;;;13.60;99.90;;;;;;5113258;28;20802;-62
2023/05/10 07:04:36;;;;;;;11.38;6.90;;;13.50;99.90;;;;;;5113508;28;20044;-62
2023/05/10 07:07:02;;;;;;;12.70;7.15;;;13.60;99.90;;;;;;5113841;28;20472;-63
2023/05/10 07:09:29;;;;;;;11.85;7.13;;;13.50;99.90;;;;;;5113651;28;20048;-62
2023/05/10 07:11:57;;;;;;;11.73;7.18;;;13.50;99.90;;;;;;5112987;28;20059;-62
2023/05/10 07:14:23;;;;;;;13.75;7.55;;;13.60;99.90;;;;;;5113911;28;20051;-61
2023/05/10 07:16:49;;;;;;;13.32;7.05;;;13.60;99.90;;;;;;5117389;28;20048;-61
2023/05/10 07:19:19;;;;;;;12.48;6.63;;;13.50;99.90;;;;;;5117625;28;20059;-64
2023/05/10 07:21:45;;;;;;;13.20;7.00;;;13.60;99.90;;;;;;5117223;28;20112;-62
2023/05/10 07:24:11;;;;;;;9.18;6.47;;;13.50;99.90;;;;;;5117177;28;20370;-61
2023/05/10 07:26:38;;;;;;;9.57;5.80;;;13.50;99.90;;;;;;5117743;28;20081;-61
2023/05/10 07:29:04;;;;;;;8.77;5.50;;;13.70;99.90;;;;;;5117118;28;20073;-62
2023/05/10 07:31:30;;;;;;;9.07;5.18;;;13.70;99.90;;;;;;5117153;28;20120;-62
2023/05/10 07:33:57;;;;;;;8.82;5.03;;;13.80;99.90;;;;;;5117321;28;20085;-62
2023/05/10 07:36:23;;;;;;;7.85;4.75;;;14.00;99.90;;;;;;5099151;28;20460;-62
2023/05/10 07:38:49;;;;;;;8.13;4.85;;;14.20;99.90;;;;;;5117339;28;20059;-62
2023/05/10 07:41:15;;;;;;;6.35;4.25;;;14.30;99.90;;;;;;5116926;28;20052;-62
2023/05/10 07:43:41;;;;;;;6.18;3.65;;;14.40;99.90;;;;;;5117107;28;20044;-62
2023/05/10 07:46:09;;;;;;;5.75;3.28;;;14.20;99.90;;;;;;5117341;28;20043;-62
2023/05/10 07:48:37;;;;;;;4.95;3.20;;;14.30;99.90;;;;;;5117110;28;20105;-62
2023/05/10 07:51:03;;;;;;;3.72;3.20;;;14.40;99.90;;;;;;5116700;28;20104;-64
2023/05/10 07:53:29;;;;;;;8.25;3.35;;;14.50;99.90;;;;;;5116838;28;20063;-61
2023/05/10 07:55:59;;;;;;;3.83;3.03;;;14.40;99.90;;;;;;5117111;28;20123;-62
2023/05/10 07:58:25;;;;;;;4.20;3.03;;;14.40;99.90;;;;;;5117095;28;20043;-62
2023/05/10 08:00:52;;;;;;;4.80;3.42;;;14.30;99.90;;;;;;5116645;28;20116;-62
2023/05/10 08:03:18;;;;;;;5.78;4.30;;;14.50;99.90;;;;;;5116820;28;20463;-63
2023/05/10 08:05:44;;;;;;;6.18;3.95;;;14.30;99.90;;;;;;5116915;28;20048;-62
2023/05/10 08:08:11;;;;;;;7.03;4.53;;;14.40;99.90;;;;;;5116878;28;20092;-62
2023/05/10 08:10:37;;;;;;;6.82;4.28;;;14.50;99.90;;;;;;5116524;28;20051;-62
2023/05/10 08:13:03;;;;;;;7.10;5.13;;;14.60;99.90;;;;;;5116598;28;20100;-62
2023/05/10 08:15:29;;;;;;;9.13;5.32;;;14.60;99.90;;;;;;5116695;28;20089;-63
2023/05/10 08:17:56;;;;;;;6.53;5.30;;;14.70;99.90;;;;;;5116861;28;20055;-62
2023/05/10 08:20:22;;;;;;;7.57;4.78;;;14.90;99.90;;;;;;5116267;28;20047;-62
2023/05/10 08:22:49;;;;;;;8.63;5.20;;;14.90;99.90;;;;;;5116544;28;20044;-62
2023/05/10 08:25:15;;;;;;;8.13;5.20;;;15.00;99.90;;;;;;5116598;28;20128;-62
2023/05/10 08:27:42;;;;;;;7.75;4.70;;;14.90;99.90;;;;;;5114800;28;20047;-63
2023/05/10 08:30:08;;;;;;;10.93;5.50;;;15.00;99.90;;;;;;5116551;28;20051;-62
2023/05/10 08:32:35;;;;;;;9.32;5.85;;;15.20;99.90;;;;;;5116256;28;20043;-62
2023/05/10 08:35:01;;;;;;;6.80;5.32;;;15.10;99.90;;;;;;5116680;28;20089;-63
2023/05/10 08:37:30;;;;;;;8.52;5.70;;;15.30;99.90;;;;;;5116195;28;20048;-63
2023/05/10 08:39:56;;;;;;;9.15;5.60;;;15.30;99.90;;;;;;5116248;28;20081;-62
2023/05/10 08:42:28;;;;;;;8.15;5.10;;;15.30;99.90;;;;;;5115708;28;20039;-62
2023/05/10 08:44:56;;;;;;;7.95;4.72;;;15.40;99.90;;;;;;5116261;28;20054;-62
2023/05/10 08:47:23;;;;;;;10.05;5.53;;;15.60;99.90;;;;;;5116209;28;20062;-62
2023/05/10 08:49:51;;;;;;;7.95;4.75;;;15.60;99.90;;;;;;5115821;28;20444;-62
2023/05/10 08:52:18;;;;;;;9.65;5.20;;;15.60;99.90;;;;;;5114996;28;20468;-62
2023/05/10 08:54:44;;;;;;;8.95;5.57;;;15.70;99.90;;;;;;5115668;28;20355;-64
2023/05/10 08:57:10;;;;;;;10.60;5.80;;;15.70;99.90;;;;;;5115993;28;20044;-63
2023/05/10 08:59:39;;;;;;;9.02;6.30;;;15.90;99.90;;;;;;5116030;28;20104;-62
2023/05/10 09:02:09;;;;;;;8.30;6.22;;;15.80;99.90;;;;;;5115277;28;20039;-63
2023/05/10 09:04:35;;;;;;;9.40;5.68;;;15.80;99.90;;;;;;5115925;28;20054;-62
2023/05/10 09:07:02;;;;;;;11.50;6.47;;;15.90;99.90;;;;;;5115586;28;20463;-63
2023/05/10 09:09:29;;;;;;;11.40;8.13;;;16.00;99.90;;;;;;5115657;28;20475;-62
2023/05/10 09:11:55;;;;;;;9.90;7.30;;;15.90;99.90;;;;;;5115062;28;20055;-63
2023/05/10 09:14:24;;;;;;;11.85;7.13;;;15.80;99.90;;;;;;5115902;28;20044;-61
2023/05/10 09:16:50;;;;;;;11.68;8.25;;;15.80;99.90;;;;;;5097558;28;20410;-62
2023/05/10 09:19:16;;;;;;;11.85;7.93;;;15.80;99.90;;;;;;5115337;28;20102;-62
2023/05/10 09:21:43;;;;;;;13.00;8.20;;;16.00;99.90;;;;;;5115248;28;20447;-62
2023/05/10 09:24:09;;;;;;;11.23;7.40;;;15.90;99.90;;;;;;5115091;28;20052;-62
2023/05/10 09:26:47;;;;;;;12.07;7.88;;;15.70;99.90;;;;;;5115468;28;20101;-63
2023/05/10 09:29:14;;;;;;;11.52;7.93;;;15.50;99.90;;;;;;5115587;28;20448;-62
2023/05/10 09:31:58;;;;;;;11.63;8.25;;;15.40;99.90;;;;;;5114654;28;20055;-61
2023/05/10 09:34:31;;;;;;;12.90;8.82;;;15.40;99.90;;;;;;5094825;28;20048;-62
2023/05/10 09:37:03;;;;;;;12.88;8.45;;;15.40;99.90;;;;;;5094773;28;20052;-63
2023/05/10 09:39:36;;;;;;;11.70;8.27;;;15.40;99.90;;;;;;5094462;28;20085;-63
2023/05/10 09:42:08;;;;;;;32.38;11.05;;;15.50;99.90;;;;;;5095584;28;20055;-62
2023/05/10 09:44:35;;;;;;;15.15;8.88;;;15.60;99.90;;;;;;5115124;28;20105;-62
2023/05/10 09:47:03;;;;;;;14.68;9.80;;;15.70;99.90;;;;;;5114735;28;20104;-61
2023/05/10 09:49:29;;;;;;;13.48;9.05;;;15.70;99.90;;;;;;5114788;28;20052;-63
2023/05/10 09:52:04;;;;;;;12.48;9.30;;;15.70;99.90;;;;;;5114514;28;20121;-63
2023/05/10 09:54:31;;;;;;;12.63;9.18;;;15.60;99.90;;;;;;5114888;28;20047;-61
2023/05/10 09:56:57;;;;;;;13.40;8.68;;;15.60;99.90;;;;;;5114609;28;20055;-62
2023/05/10 09:59:28;;;;;;;12.60;8.10;;;15.60;99.90;;;;;;5114973;28;20078;-62
2023/05/10 10:01:59;;;;;;;12.63;8.60;;;15.70;99.90;;;;;;5114129;28;20081;-63
2023/05/10 10:04:25;;;;;;;13.30;9.07;;;15.80;99.90;;;;;;5114660;28;20047;-63
2023/05/10 10:07:03;;;;;;;13.02;8.52;;;15.70;99.90;;;;;;5114903;28;20048;-62
2023/05/10 10:09:30;;;;;;;12.00;9.15;;;15.90;99.90;;;;;;5114417;28;20368;-62
2023/05/10 10:11:56;;;;;;;12.85;9.43;;;15.80;99.90;;;;;;5114250;28;20052;-64
2023/05/10 10:14:24;;;;;;;13.95;8.57;;;15.70;99.90;;;;;;5113862;28;20051;-63
2023/05/10 10:16:51;;;;;;;12.52;9.00;;;15.70;99.90;;;;;;5114100;28;20375;-63
2023/05/10 10:19:21;;;;;;;14.55;8.90;;;15.70;99.90;;;;;;5096243;28;20056;-61
2023/05/10 10:21:50;;;;;;;13.93;9.73;;;15.70;99.90;;;;;;5113732;28;20052;-61
2023/05/10 10:24:16;;;;;;;12.55;8.95;;;15.80;99.90;;;;;;5113971;28;20403;-63
2023/05/10 10:26:44;;;;;;;12.60;8.77;;;15.70;99.90;;;;;;5114300;28;20044;-62
2023/05/10 10:29:21;;;;;;;12.15;8.88;;;15.70;99.90;;;;;;5113737;28;20044;-62
2023/05/10 10:32:06;;;;;;;12.65;9.75;;;15.70;99.90;;;;;;5113678;28;20380;-62
2023/05/10 10:34:32;;;;;;;13.35;9.02;;;15.70;99.90;;;;;;5093697;28;20044;-61
2023/05/10 10:37:04;;;;;;;11.75;9.55;;;15.70;99.90;;;;;;5093622;28;20063;-62
2023/05/10 10:39:30;;;;;;;;;;;15.60;99.90;;;;;;5094219;28;20048;-63
2023/05/10 10:41:58;;;;;;;14.93;9.77;;;15.70;99.90;;;;;;5093470;28;20221;-63
2023/05/10 10:44:33;;;;;;;12.70;8.52;;;15.60;99.90;;;;;;5113292;28;20419;-63
2023/05/10 10:47:13;;;;;;;14.30;9.38;;;15.50;99.90;;;;;;5114046;28;20433;-62
2023/05/10 10:49:39;;;;;;;13.52;9.27;;;15.60;99.90;;;;;;5113171;28;20048;-62
2023/05/10 10:52:23;;;;;;;12.48;9.43;;;15.60;99.90;;;;;;5113145;28;20113;-61
2023/05/10 10:54:58;;;;;;;11.10;8.40;;;15.60;99.90;;;;;;5113654;28;20043;-62
2023/05/10 10:57:26;;;;;;;13.18;8.38;;;15.60;99.90;;;;;;5113919;28;20059;-63
2023/05/10 11:00:26;;;;;;;12.85;8.48;;;15.60;99.90;;;;;;5113925;28;20039;-62
2023/05/10 11:02:58;;;;;;;14.30;10.88;;;15.50;99.90;;;;;;5113811;28;20073;-61
2023/05/10 11:05:24;;;;;;;;;;;15.30;99.90;;;;;;5096385;28;20044;-63
2023/05/10 11:07:56;;;;;;;13.93;10.43;;;15.20;99.90;;;;;;5113887;28;19931;-62
2023/05/10 11:10:23;;;;;;;13.93;9.60;;;15.20;99.90;;;;;;5113474;28;20051;-61
2023/05/10 11:13:00;;;;;;;16.33;11.15;;;15.10;99.90;;;;;;5113501;28;20048;-63
2023/05/10 11:15:31;;;;;;;15.00;10.60;;;15.10;99.90;;;;;;5113729;28;20052;-63
2023/05/10 11:17:58;;;;;;;14.07;9.15;;;15.00;99.90;;;;;;5113582;28;20048;-61
2023/05/10 11:20:32;;;;;;;14.50;10.27;;;14.80;99.90;;;;;;5113070;28;20116;-63
2023/05/10 11:23:12;;;;;;;14.73;10.25;;;14.90;99.90;;;;;;5113502;28;20044;-61
2023/05/10 11:25:44;;;;;;;13.23;8.98;;;14.90;99.90;;;;;;5113254;28;20459;-60
2023/05/10 11:28:12;;;;;;;14.18;9.52;;;15.00;99.90;;;;;;5113188;28;20192;-63
2023/05/10 11:30:39;;;;;;;17.60;10.57;;;15.10;99.90;;;;;;5113091;28;20377;-61
2023/05/10 11:33:07;;;;;;;14.00;9.60;;;15.10;99.90;;;;;;5112984;28;20357;-61
2023/05/10 11:35:40;;;;;;;15.45;9.20;;;15.20;99.90;;;;;;5095038;28;20055;-62
2023/05/10 11:38:11;;;;;;;12.93;9.00;;;15.40;99.90;;;;;;5113536;28;20109;-61
2023/05/10 11:40:38;;;;;;;17.30;10.75;;;15.30;99.90;;;;;;5112892;28;20048;-61
2023/05/10 11:43:05;;;;;;;14.35;9.77;;;15.50;99.90;;;;;;5113271;28;20047;-62
2023/05/10 11:45:35;;;;;;;15.25;9.75;;;15.60;99.90;;;;;;5113462;28;20047;-61
2023/05/10 11:48:02;;;;;;;14.07;8.40;;;15.70;99.90;;;;;;5113345;28;20071;-62
2023/05/10 11:50:29;;;;;;;11.80;7.88;;;15.80;99.90;;;;;;5112889;28;20056;-64
2023/05/10 11:52:56;;;;;;;11.32;8.68;;;15.80;99.90;;;;;;5113146;28;20109;-61
2023/05/10 11:55:24;;;;;;;12.48;8.95;;;15.90;99.90;;;;;;5113163;28;20142;-61
2023/05/10 11:58:00;;;;;;;16.80;12.18;;;16.00;99.90;;;;;;5113296;28;20044;-63
2023/05/10 12:00:27;;;;;;;13.65;9.20;;;16.00;99.90;;;;;;5112820;28;20353;-62
2023/05/10 12:02:53;;;;;;;12.40;8.38;;;16.10;99.90;;;;;;5116612;28;20044;-63
2023/05/10 12:05:20;;;;;;;12.88;8.70;;;16.10;99.90;;;;;;5116869;28;20040;-61
2023/05/10 12:07:46;;;;;;;12.77;9.02;;;16.00;99.90;;;;;;5116657;28;20062;-62
2023/05/10 12:10:19;;;;;;;12.35;9.27;;;16.10;99.90;;;;;;5116093;28;20482;-62
2023/05/10 12:12:49;;;;;;;15.20;8.73;;;16.00;99.90;;;;;;5116543;28;20414;-61
2023/05/10 12:15:21;;;;;;;11.52;8.43;;;16.10;99.90;;;;;;5116688;28;20375;-62
2023/05/10 12:17:48;;;;;;;13.35;7.95;;;16.20;99.90;;;;;;5116804;28;20063;-63
2023/05/10 12:20:19;;;;;;;12.80;8.43;;;16.30;99.90;;;;;;5116094;28;20054;-61
2023/05/10 12:22:55;;;;;;;11.93;9.52;;;16.30;99.90;;;;;;5116075;28;20481;-61
2023/05/10 12:25:23;;;;;;;12.98;9.30;;;16.40;99.90;;;;;;5117149;28;20047;-62
2023/05/10 12:27:57;;;;;;;12.65;9.10;;;16.40;99.90;;;;;;5116298;28;20066;-62
2023/05/10 12:30:25;;;;;;;12.15;7.85;;;16.10;99.90;;;;;;5115749;28;20055;-62
2023/05/10 12:32:53;;;;;;;10.48;7.90;;;16.00;99.90;;;;;;5098401;28;20051;-61
2023/05/10 12:35:21;;;;;;;11.73;7.43;;;16.00;99.90;;;;;;5115753;28;20352;-62
2023/05/10 12:37:48;;;;;;;11.55;7.95;;;15.90;99.90;;;;;;5116137;28;20043;-64
2023/05/10 12:40:14;;;;;;;9.50;6.82;;;15.70;99.90;;;;;;5115986;28;20047;-63
2023/05/10 12:42:41;;;;;;;11.73;6.93;;;15.80;99.90;;;;;;5116053;28;20035;-62
2023/05/10 12:45:08;;;;;;;10.32;6.57;;;15.90;99.90;;;;;;5116307;28;20051;-62
2023/05/10 12:47:34;;;;;;;10.32;6.97;;;16.00;99.90;;;;;;5116056;28;20056;-62